CheckWX is a tool to help pilots better visualize weather data.  It is not intended as a substitute for an official pre-flight weather briefing.

10:10:03 UTC

CYQU TAF
Grande Prairie Airport
Grande Prairie, Canada
TAF CYQU 260638Z 2607/2619 27006KT P6SM SCT040 BKN070 FM261000 29005KT P6SM SCT020 BKN040 OVC080 TEMPO 2610/2619 4SM -SHRA BR BKN012 OVC030 RMK NXT FCST BY 261300Z

Jun-26@
07:00 UTC

Jun-26 @ 07:00 UTC

Jun-26@
10:00 UTC

Jun-26 @ 10:00 UTC

TAF CYQU 260638Z 2607/2619 27006KT P6SM SCT040 BKN070

Expired

Wind
  • 270° at 6 KTS
Cloud Levels
  • Scattered at 4,000' AGL
  • Broken at 7,000' AGL

Jun-26@
10:00 UTC

Jun-26 @ 10:00 UTC

Jun-26@
19:00 UTC

Jun-26 @ 19:00 UTC

TEMPO 2610/2619 4SM -SHRA BR BKN012 OVC030 RMK NXT FCST BY 261300Z

Temporary

Temporary Changes expected for less than half the time period

Conditions
Light Rain, Mist
Cloud Levels
  • Broken at 1,200' AGL
  • Overcast at 3,000' AGL

Jun-26@
10:00 UTC

Jun-26 @ 10:00 UTC

Jun-26@
19:00 UTC

Jun-26 @ 19:00 UTC

FM261000 29005KT P6SM SCT020 BKN040 OVC080

From

From Standard forecast or significant change

Wind
  • 290° at 5 KTS
Cloud Levels
  • Scattered at 2,000' AGL
  • Broken at 4,000' AGL
  • Overcast at 8,000' AGL